Temp: 5.8°C   Baro: 993.7mb
  Wind: 0.0mph   Dir: WNW (296°)
  Rain: 0.2mm (0.0mm/hr)
  Solar: 153W/m2  Hum: 92%
 
Bath Spa Weather Station Historical Data
Daily Summary for July 13, 2019 Units:  Both    English   Metric
Daily Weekly Monthly Yearly Custom
  High: Low: Average:
Temperature: 51.7 °F /  10.9 °C 46.5 °F /  8.1 °C 49.2 °F /  9.6 °C
Dew Point: 46.9 °F /  8.3 °C 38.6 °F /  3.7 °C 45.1 °F /  7.3 °C
Humidity: 91% 70% 86%
Wind Speed: 18mph /  29km/h - 9.3mph /  15km/h
Wind Gust: 30mph /  48.3km/h - -
Wind- - WNW
Pressure: 30.16 in /  1021.2 hPa 29.92 in /  1013.1 hPa -
Precipitation: 0.00 in /  0 mm    
Historical Graphs
 
 
Tabular Data for July 13, 2019
Time Temperature Dew Point Pressure Wind Wind Speed Wind Gust Humidity Rainfall Rate (Hourly) solar
00:04 48.7 °F /  9.3 °C 45.8 °F /  7.7 °C 30.16in /  1021.2hPa WNW 5.1mph /  8.2km/h 10mph /  16.1km/h 90% 0.00in /  0mm 0 W/m2
00:09 48.7 °F /  9.3 °C 45.9 °F /  7.7 °C 30.16in /  1021.2hPa WNW 5.8mph /  9.3km/h 9mph /  14.5km/h 90% 0.00in /  0mm 0 W/m2
00:14 48.7 °F /  9.3 °C 45.9 °F /  7.7 °C 30.16in /  1021.2hPa WNW 7.6mph /  12.2km/h 12mph /  19.3km/h 90% 0.00in /  0mm 0 W/m2
00:19 48.9 °F /  9.4 °C 46 °F /  7.8 °C 30.15in /  1020.9hPa WNW 5.3mph /  8.5km/h 12mph /  19.3km/h 90% 0.00in /  0mm 0 W/m2
00:24 48.9 °F /  9.4 °C 46 °F /  7.8 °C 30.15in /  1020.9hPa WNW 10.8mph /  17.4km/h 17mph /  27.4km/h 90% 0.00in /  0mm 0 W/m2
00:29 48.9 °F /  9.4 °C 46 °F /  7.8 °C 30.15in /  1020.9hPa WNW 8.3mph /  13.4km/h 16mph /  25.7km/h 90% 0.00in /  0mm 0 W/m2
00:34 48.9 °F /  9.4 °C 46 °F /  7.8 °C 30.15in /  1020.9hPa WNW 10.1mph /  16.3km/h 18mph /  29km/h 90% 0.00in /  0mm 0 W/m2
00:39 48.8 °F /  9.3 °C 46 °F /  7.8 °C 30.14in /  1020.5hPa WNW 8.9mph /  14.3km/h 17mph /  27.4km/h 90% 0.00in /  0mm 0 W/m2
00:44 48.7 °F /  9.3 °C 45.9 °F /  7.7 °C 30.14in /  1020.5hPa WNW 8.8mph /  14.2km/h 16mph /  25.7km/h 90% 0.00in /  0mm 0 W/m2
00:49 48.7 °F /  9.3 °C 45.9 °F /  7.7 °C 30.14in /  1020.5hPa WNW 10.6mph /  17.1km/h 19mph /  30.6km/h 90% 0.00in /  0mm 0 W/m2
00:54 48.7 °F /  9.3 °C 45.9 °F /  7.7 °C 30.15in /  1020.9hPa WNW 9.6mph /  15.4km/h 16mph /  25.7km/h 90% 0.00in /  0mm 0 W/m2
00:59 48.7 °F /  9.3 °C 46 °F /  7.8 °C 30.14in /  1020.5hPa WNW 9.1mph /  14.6km/h 15mph /  24.1km/h 90.4% 0.00in /  0mm 0 W/m2
01:04 48.7 °F /  9.3 °C 46.1 °F /  7.8 °C 30.14in /  1020.5hPa WNW 11.4mph /  18.3km/h 18mph /  29km/h 90.8% 0.00in /  0mm 0 W/m2
01:09 48.7 °F /  9.3 °C 45.9 °F /  7.7 °C 30.14in /  1020.5hPa WNW 10.9mph /  17.5km/h 19mph /  30.6km/h 90.1% 0.00in /  0mm 0 W/m2
01:14 48.7 °F /  9.3 °C 45.9 °F /  7.7 °C 30.13in /  1020.2hPa WNW 8.5mph /  13.7km/h 19mph /  30.6km/h 90% 0.00in /  0mm 0 W/m2
01:19 48.7 °F /  9.3 °C 45.9 °F /  7.7 °C 30.13in /  1020.2hPa WNW 7.8mph /  12.6km/h 17mph /  27.4km/h 90% 0.00in /  0mm 0 W/m2
01:24 48.7 °F /  9.3 °C 46.1 °F /  7.8 °C 30.13in /  1020.2hPa WNW 11.3mph /  18.2km/h 17mph /  27.4km/h 90.6% 0.00in /  0mm 0 W/m2
01:29 48.7 °F /  9.3 °C 46.2 °F /  7.9 °C 30.13in /  1020.2hPa WNW 8.7mph /  14km/h 17mph /  27.4km/h 91% 0.00in /  0mm 0 W/m2
01:34 48.8 °F /  9.3 °C 46.3 °F /  7.9 °C 30.13in /  1020.2hPa WNW 11.2mph /  18km/h 21mph /  33.8km/h 91% 0.00in /  0mm 0 W/m2
01:39 48.9 °F /  9.4 °C 46.4 °F /  8 °C 30.13in /  1020.2hPa WNW 10mph /  16.1km/h 17mph /  27.4km/h 91% 0.00in /  0mm 0 W/m2
01:44 48.9 °F /  9.4 °C 46.4 °F /  8 °C 30.13in /  1020.2hPa WNW 8.8mph /  14.2km/h 14mph /  22.5km/h 91% 0.00in /  0mm 0 W/m2
01:49 48.9 °F /  9.4 °C 46.4 °F /  8 °C 30.13in /  1020.2hPa WNW 11.3mph /  18.2km/h 15mph /  24.1km/h 91% 0.00in /  0mm 0 W/m2
01:54 48.9 °F /  9.4 °C 46.4 °F /  8 °C 30.13in /  1020.2hPa WNW 9.4mph /  15.1km/h 14mph /  22.5km/h 91% 0.00in /  0mm 0 W/m2
01:59 48.9 °F /  9.4 °C 46.4 °F /  8 °C 30.13in /  1020.2hPa WNW 9.2mph /  14.8km/h 15mph /  24.1km/h 91% 0.00in /  0mm 0 W/m2
02:04 49 °F /  9.4 °C 46.5 °F /  8.1 °C 30.13in /  1020.2hPa WNW 8.1mph /  13km/h 15mph /  24.1km/h 91% 0.00in /  0mm 0 W/m2
02:09 48.9 °F /  9.4 °C 46.4 °F /  8 °C 30.13in /  1020.2hPa WNW 7.7mph /  12.4km/h 15mph /  24.1km/h 91% 0.00in /  0mm 0 W/m2
02:14 49 °F /  9.4 °C 46.5 °F /  8.1 °C 30.13in /  1020.2hPa West 10.2mph /  16.4km/h 16mph /  25.7km/h 91% 0.00in /  0mm 0 W/m2
02:19 49.1 °F /  9.5 °C 46.6 °F /  8.1 °C 30.13in /  1020.2hPa West 8.8mph /  14.2km/h 16mph /  25.7km/h 91% 0.00in /  0mm 0 W/m2
02:24 49.1 °F /  9.5 °C 46.6 °F /  8.1 °C 30.13in /  1020.2hPa West 8.2mph /  13.2km/h 13mph /  20.9km/h 91% 0.00in /  0mm 0 W/m2
02:29 49 °F /  9.4 °C 46.5 °F /  8.1 °C 30.13in /  1020.2hPa West 6.8mph /  10.9km/h 14mph /  22.5km/h 91% 0.00in /  0mm 0 W/m2
02:34 48.9 °F /  9.4 °C 46.4 °F /  8 °C 30.12in /  1019.9hPa West 8.6mph /  13.8km/h 14mph /  22.5km/h 91% 0.00in /  0mm 0 W/m2
02:39 49 °F /  9.4 °C 46.5 °F /  8.1 °C 30.12in /  1019.9hPa West 6.8mph /  10.9km/h 12mph /  19.3km/h 91% 0.00in /  0mm 0 W/m2
02:44 49 °F /  9.4 °C 46.5 °F /  8.1 °C 30.12in /  1019.9hPa West 6.6mph /  10.6km/h 12mph /  19.3km/h 91% 0.00in /  0mm 0 W/m2
02:49 48.9 °F /  9.4 °C 46.4 °F /  8 °C 30.12in /  1019.9hPa West 8.4mph /  13.5km/h 12mph /  19.3km/h 91% 0.00in /  0mm 0 W/m2
02:54 48.9 °F /  9.4 °C 46.4 °F /  8 °C 30.12in /  1019.9hPa West 10.4mph /  16.7km/h 16mph /  25.7km/h 91% 0.00in /  0mm 0 W/m2
02:59 49 °F /  9.4 °C 46.5 °F /  8.1 °C 30.12in /  1019.9hPa West 7mph /  11.3km/h 16mph /  25.7km/h 91% 0.00in /  0mm 0 W/m2
03:04 49 °F /  9.4 °C 46.5 °F /  8.1 °C 30.12in /  1019.9hPa West 7.1mph /  11.4km/h 15mph /  24.1km/h 91% 0.00in /  0mm 0 W/m2
03:09 48.9 °F /  9.4 °C 46.4 °F /  8 °C 30.12in /  1019.9hPa West 8.7mph /  14km/h 17mph /  27.4km/h 91% 0.00in /  0mm 0 W/m2
03:14 48.9 °F /  9.4 °C 46.4 °F /  8 °C 30.12in /  1019.9hPa West 6.9mph /  11.1km/h 17mph /  27.4km/h 91% 0.00in /  0mm 0 W/m2
03:19 48.9 °F /  9.4 °C 46.4 °F /  8 °C 30.12in /  1019.9hPa West 7.9mph /  12.7km/h 14mph /  22.5km/h 91% 0.00in /  0mm 0 W/m2
03:24 49 °F /  9.4 °C 46.5 °F /  8.1 °C 30.12in /  1019.9hPa West 8.2mph /  13.2km/h 14mph /  22.5km/h 91% 0.00in /  0mm 0 W/m2
03:29 49 °F /  9.4 °C 46.5 °F /  8.1 °C 30.12in /  1019.9hPa West 10.2mph /  16.4km/h 16mph /  25.7km/h 91% 0.00in /  0mm 0 W/m2
03:34 49.1 °F /  9.5 °C 46.6 °F /  8.1 °C 30.12in /  1019.9hPa West 9mph /  14.5km/h 15mph /  24.1km/h 91% 0.00in /  0mm 0 W/m2
03:39 49.1 °F /  9.5 °C 46.6 °F /  8.1 °C 30.12in /  1019.9hPa West 9.2mph /  14.8km/h 15mph /  24.1km/h 91% 0.00in /  0mm 0 W/m2
03:44 49.1 °F /  9.5 °C 46.6 °F /  8.1 °C 30.11in /  1019.5hPa West 7.1mph /  11.4km/h 15mph /  24.1km/h 91% 0.00in /  0mm 0 W/m2
03:49 49.1 °F /  9.5 °C 46.6 °F /  8.1 °C 30.11in /  1019.5hPa West 5.4mph /  8.7km/h 13mph /  20.9km/h 91% 0.00in /  0mm 0 W/m2
03:54 49.1 °F /  9.5 °C 46.6 °F /  8.1 °C 30.11in /  1019.5hPa West 4.4mph /  7.1km/h 9mph /  14.5km/h 91% 0.00in /  0mm 0 W/m2
03:59 49.1 °F /  9.5 °C 46.6 °F /  8.1 °C 30.11in /  1019.5hPa WNW 6.2mph /  10km/h 12mph /  19.3km/h 91% 0.00in /  0mm 0 W/m2
04:04 49.2 °F /  9.6 °C 46.7 °F /  8.2 °C 30.11in /  1019.5hPa West 8mph /  12.9km/h 14mph /  22.5km/h 91% 0.00in /  0mm 0 W/m2
04:09 49.4 °F /  9.7 °C 46.8 °F /  8.2 °C 30.10in /  1019.2hPa West 8.6mph /  13.8km/h 13mph /  20.9km/h 90.9% 0.00in /  0mm 0 W/m2
04:14 49.5 °F /  9.7 °C 46.6 °F /  8.1 °C 30.10in /  1019.2hPa WNW 9.6mph /  15.4km/h 16mph /  25.7km/h 90% 0.00in /  0mm 0 W/m2
04:19 49.5 °F /  9.7 °C 46.6 °F /  8.1 °C 30.10in /  1019.2hPa West 6.9mph /  11.1km/h 16mph /  25.7km/h 90% 0.00in /  0mm 0 W/m2
04:24 49.5 °F /  9.7 °C 46.6 °F /  8.1 °C 30.10in /  1019.2hPa West 6.9mph /  11.1km/h 15mph /  24.1km/h 90% 0.00in /  0mm 0 W/m2
04:29 49.5 °F /  9.7 °C 46.6 °F /  8.1 °C 30.10in /  1019.2hPa WNW 7.5mph /  12.1km/h 15mph /  24.1km/h 90% 0.00in /  0mm 0 W/m2
04:34 49.3 °F /  9.6 °C 46.4 °F /  8 °C 30.10in /  1019.2hPa WNW 7.1mph /  11.4km/h 13mph /  20.9km/h 90% 0.00in /  0mm 0 W/m2
04:39 49.2 °F /  9.6 °C 46.3 °F /  7.9 °C 30.10in /  1019.2hPa West 7.2mph /  11.6km/h 13mph /  20.9km/h 90% 0.00in /  0mm 0 W/m2
04:44 49.1 °F /  9.5 °C 46.2 °F /  7.9 °C 30.10in /  1019.2hPa West 9.9mph /  15.9km/h 16mph /  25.7km/h 90% 0.00in /  0mm 0 W/m2
04:49 49.1 °F /  9.5 °C 46.2 °F /  7.9 °C 30.10in /  1019.2hPa WNW 12.6mph /  20.3km/h 22mph /  35.4km/h 90% 0.00in /  0mm 0 W/m2
04:54 49.1 °F /  9.5 °C 46.2 °F /  7.9 °C 30.10in /  1019.2hPa West 7.3mph /  11.7km/h 14mph /  22.5km/h 90% 0.00in /  0mm 0 W/m2
04:59 49.1 °F /  9.5 °C 46.2 °F /  7.9 °C 30.10in /  1019.2hPa West 8.6mph /  13.8km/h 17mph /  27.4km/h 90% 0.00in /  0mm 0 W/m2
05:04 49.1 °F /  9.5 °C 46.2 °F /  7.9 °C 30.10in /  1019.2hPa West 7.9mph /  12.7km/h 17mph /  27.4km/h 90% 0.00in /  0mm 0 W/m2
05:09 49.1 °F /  9.5 °C 46.2 °F /  7.9 °C 30.10in /  1019.2hPa West 8.8mph /  14.2km/h 14mph /  22.5km/h 90% 0.00in /  0mm 0 W/m2
05:14 49.1 °F /  9.5 °C 46.2 °F /  7.9 °C 30.10in /  1019.2hPa West 8mph /  12.9km/h 15mph /  24.1km/h 90% 0.00in /  0mm 0 W/m2
05:19 49.1 °F /  9.5 °C 46.2 °F /  7.9 °C 30.09in /  1018.8hPa WNW 10.4mph /  16.7km/h 18mph /  29km/h 90% 0.00in /  0mm 0 W/m2
05:24 49.1 °F /  9.5 °C 46.2 °F /  7.9 °C 30.09in /  1018.8hPa West 7.9mph /  12.7km/h 16mph /  25.7km/h 90% 0.00in /  0mm 0 W/m2
05:29 49.1 °F /  9.5 °C 46.2 °F /  7.9 °C 30.10in /  1019.2hPa West 7.1mph /  11.4km/h 16mph /  25.7km/h 90% 0.00in /  0mm 0 W/m2
05:34 49.1 °F /  9.5 °C 46.2 °F /  7.9 °C 30.09in /  1018.8hPa WNW 9mph /  14.5km/h 16mph /  25.7km/h 90% 0.00in /  0mm 0 W/m2
05:39 49.1 °F /  9.5 °C 46.1 °F /  7.8 °C 30.09in /  1018.8hPa WNW 7.9mph /  12.7km/h 17mph /  27.4km/h 89.4% 0.00in /  0mm 0 W/m2
05:44 49.1 °F /  9.5 °C 46 °F /  7.8 °C 30.09in /  1018.8hPa West 11.2mph /  18km/h 18mph /  29km/h 89% 0.00in /  0mm 0 W/m2
05:49 49.1 °F /  9.5 °C 46 °F /  7.8 °C 30.08in /  1018.5hPa West 10.8mph /  17.4km/h 18mph /  29km/h 89% 0.00in /  0mm 0 W/m2
05:54 49 °F /  9.4 °C 45.9 °F /  7.7 °C 30.08in /  1018.5hPa WNW 7.3mph /  11.7km/h 15mph /  24.1km/h 89% 0.00in /  0mm 0 W/m2
05:59 48.9 °F /  9.4 °C 45.9 °F /  7.7 °C 30.08in /  1018.5hPa WNW 13.4mph /  21.6km/h 19mph /  30.6km/h 89% 0.00in /  0mm 0 W/m2
06:04 48.8 °F /  9.3 °C 45.8 °F /  7.7 °C 30.07in /  1018.2hPa WNW 8.6mph /  13.8km/h 18mph /  29km/h 89% 0.00in /  0mm 0 W/m2
06:09 48.8 °F /  9.3 °C 45.8 °F /  7.7 °C 30.07in /  1018.2hPa WNW 15mph /  24.1km/h 26mph /  41.8km/h 89% 0.00in /  0mm 0 W/m2
06:14 48.8 °F /  9.3 °C 45.8 °F /  7.7 °C 30.07in /  1018.2hPa WNW 10.2mph /  16.4km/h 21mph /  33.8km/h 89% 0.00in /  0mm 0 W/m2
06:19 48.7 °F /  9.3 °C 45.7 °F /  7.6 °C 30.07in /  1018.2hPa WNW 11.6mph /  18.7km/h 21mph /  33.8km/h 89% 0.00in /  0mm 0 W/m2
06:24 48.7 °F /  9.3 °C 45.7 °F /  7.6 °C 30.07in /  1018.2hPa WNW 11.1mph /  17.9km/h 21mph /  33.8km/h 89% 0.00in /  0mm 0 W/m2
06:29 48.7 °F /  9.3 °C 45.5 °F /  7.5 °C 30.07in /  1018.2hPa WNW 8.1mph /  13km/h 21mph /  33.8km/h 88.5% 0.00in /  0mm 0 W/m2
06:34 48.7 °F /  9.3 °C 45.5 °F /  7.5 °C 30.08in /  1018.5hPa WNW 11.4mph /  18.3km/h 22mph /  35.4km/h 88.6% 0.00in /  0mm 0 W/m2
06:39 48.7 °F /  9.3 °C 45.7 °F /  7.6 °C 30.08in /  1018.5hPa WNW 13.7mph /  22km/h 23mph /  37km/h 89% 0.00in /  0mm 0 W/m2
06:44 48.7 °F /  9.3 °C 45.5 °F /  7.5 °C 30.07in /  1018.2hPa WNW 9.5mph /  15.3km/h 20mph /  32.2km/h 88.3% 0.00in /  0mm 0 W/m2
06:49 48.7 °F /  9.3 °C 45.7 °F /  7.6 °C 30.07in /  1018.2hPa WNW 9.4mph /  15.1km/h 20mph /  32.2km/h 89% 0.00in /  0mm 0 W/m2
06:54 48.7 °F /  9.3 °C 45.5 °F /  7.5 °C 30.07in /  1018.2hPa WNW 11.1mph /  17.9km/h 20mph /  32.2km/h 88.5% 0.00in /  0mm 0 W/m2
06:59 48.7 °F /  9.3 °C 45.4 °F /  7.4 °C 30.07in /  1018.2hPa WNW 9.6mph /  15.4km/h 20mph /  32.2km/h 88.2% 0.00in /  0mm 0 W/m2
07:04 48.7 °F /  9.3 °C 45.3 °F /  7.4 °C 30.07in /  1018.2hPa WNW 8mph /  12.9km/h 17mph /  27.4km/h 88% 0.00in /  0mm 0 W/m2
07:09 48.7 °F /  9.3 °C 45.3 °F /  7.4 °C 30.07in /  1018.2hPa WNW 9.9mph /  15.9km/h 18mph /  29km/h 88% 0.00in /  0mm 0 W/m2
07:14 48.7 °F /  9.3 °C 45.2 °F /  7.3 °C 30.07in /  1018.2hPa WNW 9.2mph /  14.8km/h 18mph /  29km/h 88% 0.00in /  0mm 0 W/m2
07:19 48.7 °F /  9.3 °C 45.2 °F /  7.3 °C 30.06in /  1017.8hPa WNW 8.5mph /  13.7km/h 17mph /  27.4km/h 88% 0.00in /  0mm 0 W/m2
07:24 48.6 °F /  9.2 °C 45.2 °F /  7.3 °C 30.06in /  1017.8hPa WNW 9.4mph /  15.1km/h 16mph /  25.7km/h 88% 0.00in /  0mm 0 W/m2
07:29 48.7 °F /  9.3 °C 45.3 °F /  7.4 °C 30.06in /  1017.8hPa WNW 10.6mph /  17.1km/h 17mph /  27.4km/h 88% 0.00in /  0mm 0 W/m2
07:34 48.7 °F /  9.3 °C 45.3 °F /  7.4 °C 30.06in /  1017.8hPa NW 7.7mph /  12.4km/h 17mph /  27.4km/h 88% 0.00in /  0mm 0 W/m2
07:39 48.7 °F /  9.3 °C 45.3 °F /  7.4 °C 30.06in /  1017.8hPa WNW 9.7mph /  15.6km/h 19mph /  30.6km/h 88% 0.00in /  0mm 0 W/m2
07:44 48.7 °F /  9.3 °C 45.3 °F /  7.4 °C 30.06in /  1017.8hPa WNW 9mph /  14.5km/h 19mph /  30.6km/h 88% 0.00in /  0mm 0 W/m2
07:49 48.7 °F /  9.3 °C 45.3 °F /  7.4 °C 30.06in /  1017.8hPa WNW 8.4mph /  13.5km/h 16mph /  25.7km/h 88% 0.00in /  0mm 0 W/m2
07:54 48.7 °F /  9.3 °C 45.3 °F /  7.4 °C 30.06in /  1017.8hPa WNW 9.9mph /  15.9km/h 16mph /  25.7km/h 88% 0.00in /  0mm 0 W/m2
07:59 48.7 °F /  9.3 °C 45.3 °F /  7.4 °C 30.06in /  1017.8hPa WNW 8.5mph /  13.7km/h 16mph /  25.7km/h 88% 0.00in /  0mm 0 W/m2
08:04 48.7 °F /  9.3 °C 45.3 °F /  7.4 °C 30.07in /  1018.2hPa WNW 9.1mph /  14.6km/h 16mph /  25.7km/h 88% 0.00in /  0mm 0 W/m2
08:09 48.7 °F /  9.3 °C 45.3 °F /  7.4 °C 30.07in /  1018.2hPa NW 7.2mph /  11.6km/h 16mph /  25.7km/h 88% 0.00in /  0mm 0 W/m2
08:14 48.7 °F /  9.3 °C 45.3 °F /  7.4 °C 30.07in /  1018.2hPa WNW 6.9mph /  11.1km/h 14mph /  22.5km/h 88% 0.00in /  0mm 0 W/m2
08:19 48.7 °F /  9.3 °C 45.2 °F /  7.3 °C 30.06in /  1017.8hPa WNW 9.5mph /  15.3km/h 16mph /  25.7km/h 88% 0.00in /  0mm 0 W/m2
08:24 48.7 °F /  9.3 °C 45.2 °F /  7.3 °C 30.06in /  1017.8hPa WNW 11mph /  17.7km/h 17mph /  27.4km/h 88% 0.00in /  0mm 0 W/m2
08:29 48.7 °F /  9.3 °C 45.1 °F /  7.3 °C 30.07in /  1018.2hPa WNW 10.2mph /  16.4km/h 17mph /  27.4km/h 87.3% 0.00in /  0mm 0 W/m2
08:34 48.7 °F /  9.3 °C 45 °F /  7.2 °C 30.06in /  1017.8hPa WNW 8.5mph /  13.7km/h 17mph /  27.4km/h 87% 0.00in /  0mm 0 W/m2
08:39 48.7 °F /  9.3 °C 45.3 °F /  7.4 °C 30.06in /  1017.8hPa WNW 10.5mph /  16.9km/h 20mph /  32.2km/h 88% 0.00in /  0mm 0 W/m2
08:44 48.7 °F /  9.3 °C 45.3 °F /  7.4 °C 30.06in /  1017.8hPa WNW 11.1mph /  17.9km/h 22mph /  35.4km/h 88% 0.00in /  0mm 5 W/m2
08:49 48.7 °F /  9.3 °C 45.3 °F /  7.4 °C 30.06in /  1017.8hPa WNW 10.2mph /  16.4km/h 22mph /  35.4km/h 88% 0.00in /  0mm 7 W/m2
08:54 48.7 °F /  9.3 °C 45.3 °F /  7.4 °C 30.05in /  1017.5hPa WNW 10.2mph /  16.4km/h 18mph /  29km/h 88% 0.00in /  0mm 11 W/m2
08:59 48.7 °F /  9.3 °C 45.2 °F /  7.3 °C 30.05in /  1017.5hPa WNW 12.6mph /  20.3km/h 19mph /  30.6km/h 88% 0.00in /  0mm 12 W/m2
09:04 48.6 °F /  9.2 °C 45.2 °F /  7.3 °C 30.05in /  1017.5hPa WNW 8.9mph /  14.3km/h 18mph /  29km/h 88% 0.00in /  0mm 21 W/m2
09:09 48.7 °F /  9.3 °C 45.2 °F /  7.3 °C 30.04in /  1017.2hPa WNW 11.9mph /  19.2km/h 20mph /  32.2km/h 88% 0.00in /  0mm 33 W/m2
09:14 48.7 °F /  9.3 °C 45.3 °F /  7.4 °C 30.05in /  1017.5hPa WNW 16.4mph /  26.4km/h 26mph /  41.8km/h 88% 0.00in /  0mm 42 W/m2
09:19 48.7 °F /  9.3 °C 45.1 °F /  7.3 °C 30.04in /  1017.2hPa WNW 12.6mph /  20.3km/h 24mph /  38.6km/h 87.2% 0.00in /  0mm 51 W/m2
09:24 48.8 °F /  9.3 °C 45 °F /  7.2 °C 30.04in /  1017.2hPa WNW 12.4mph /  20km/h 24mph /  38.6km/h 87% 0.00in /  0mm 67 W/m2
09:29 48.8 °F /  9.3 °C 45.1 °F /  7.3 °C 30.04in /  1017.2hPa WNW 11.8mph /  19km/h 21mph /  33.8km/h 87% 0.00in /  0mm 37 W/m2
09:34 48.9 °F /  9.4 °C 45.1 °F /  7.3 °C 30.04in /  1017.2hPa WNW 14.2mph /  22.9km/h 22mph /  35.4km/h 87% 0.00in /  0mm 33 W/m2
09:39 48.9 °F /  9.4 °C 45.1 °F /  7.3 °C 30.04in /  1017.2hPa WNW 12mph /  19.3km/h 22mph /  35.4km/h 87% 0.00in /  0mm 33 W/m2
09:44 48.9 °F /  9.4 °C 45.1 °F /  7.3 °C 30.04in /  1017.2hPa WNW 11.9mph /  19.2km/h 22mph /  35.4km/h 87% 0.00in /  0mm 47 W/m2
09:49 48.9 °F /  9.4 °C 45.1 °F /  7.3 °C 30.04in /  1017.2hPa WNW 12.1mph /  19.5km/h 22mph /  35.4km/h 87% 0.00in /  0mm 58 W/m2
09:54 49 °F /  9.4 °C 45.2 °F /  7.3 °C 30.04in /  1017.2hPa WNW 13.6mph /  21.9km/h 23mph /  37km/h 87% 0.00in /  0mm 42 W/m2
09:59 49.1 °F /  9.5 °C 45.3 °F /  7.4 °C 30.04in /  1017.2hPa WNW 12.1mph /  19.5km/h 23mph /  37km/h 87% 0.00in /  0mm 44 W/m2
10:04 49.1 °F /  9.5 °C 45.3 °F /  7.4 °C 30.04in /  1017.2hPa WNW 11.1mph /  17.9km/h 16mph /  25.7km/h 87% 0.00in /  0mm 35 W/m2
10:09 49.1 °F /  9.5 °C 45.3 °F /  7.4 °C 30.04in /  1017.2hPa WNW 14mph /  22.5km/h 20mph /  32.2km/h 87% 0.00in /  0mm 49 W/m2
10:14 49.2 °F /  9.6 °C 45.4 °F /  7.4 °C 30.05in /  1017.5hPa WNW 15.4mph /  24.8km/h 27mph /  43.5km/h 87% 0.00in /  0mm 42 W/m2
10:19 49.3 °F /  9.6 °C 45.5 °F /  7.5 °C 30.05in /  1017.5hPa WNW 10.4mph /  16.7km/h 21mph /  33.8km/h 87% 0.00in /  0mm 53 W/m2
10:24 49.4 °F /  9.7 °C 45.6 °F /  7.6 °C 30.05in /  1017.5hPa WNW 10mph /  16.1km/h 21mph /  33.8km/h 87% 0.00in /  0mm 47 W/m2
10:29 49.5 °F /  9.7 °C 45.7 °F /  7.6 °C 30.04in /  1017.2hPa WNW 11.5mph /  18.5km/h 22mph /  35.4km/h 87% 0.00in /  0mm 47 W/m2
10:34 49.5 °F /  9.7 °C 45.7 °F /  7.6 °C 30.04in /  1017.2hPa WNW 10.8mph /  17.4km/h 18mph /  29km/h 87% 0.00in /  0mm 39 W/m2
10:39 49.5 °F /  9.7 °C 45.7 °F /  7.6 °C 30.04in /  1017.2hPa WNW 12.8mph /  20.6km/h 22mph /  35.4km/h 87% 0.00in /  0mm 35 W/m2
10:44 49.5 °F /  9.7 °C 45.7 °F /  7.6 °C 30.03in /  1016.8hPa WNW 12.1mph /  19.5km/h 22mph /  35.4km/h 87% 0.00in /  0mm 33 W/m2
10:49 49.5 °F /  9.7 °C 45.7 °F /  7.6 °C 30.03in /  1016.8hPa WNW 10.1mph /  16.3km/h 21mph /  33.8km/h 87% 0.00in /  0mm 30 W/m2
10:54 49.5 °F /  9.7 °C 45.7 °F /  7.6 °C 30.03in /  1016.8hPa WNW 12.6mph /  20.3km/h 24mph /  38.6km/h 87% 0.00in /  0mm 30 W/m2
10:59 49.4 °F /  9.7 °C 45.6 °F /  7.6 °C 30.03in /  1016.8hPa WNW 9.9mph /  15.9km/h 20mph /  32.2km/h 87% 0.00in /  0mm 28 W/m2
11:04 49.4 °F /  9.7 °C 45.6 °F /  7.6 °C 30.03in /  1016.8hPa WNW 11.3mph /  18.2km/h 17mph /  27.4km/h 87% 0.00in /  0mm 30 W/m2
11:09 49.4 °F /  9.7 °C 45.6 °F /  7.6 °C 30.03in /  1016.8hPa WNW 10.8mph /  17.4km/h 19mph /  30.6km/h 87% 0.00in /  0mm 25 W/m2
11:14 49.4 °F /  9.7 °C 45.6 °F /  7.6 °C 30.03in /  1016.8hPa WNW 12.9mph /  20.8km/h 21mph /  33.8km/h 87% 0.00in /  0mm 25 W/m2
11:19 49.4 °F /  9.7 °C 45.8 °F /  7.7 °C 30.03in /  1016.8hPa WNW 14.5mph /  23.3km/h 28mph /  45.1km/h 87.5% 0.00in /  0mm 35 W/m2
11:24 49.5 °F /  9.7 °C 46 °F /  7.8 °C 30.03in /  1016.8hPa WNW 12.6mph /  20.3km/h 25mph /  40.2km/h 88% 0.00in /  0mm 44 W/m2
11:29 49.5 °F /  9.7 °C 46 °F /  7.8 °C 30.02in /  1016.5hPa WNW 9.5mph /  15.3km/h 20mph /  32.2km/h 88% 0.00in /  0mm 56 W/m2
11:34 49.5 °F /  9.7 °C 46 °F /  7.8 °C 30.01in /  1016.1hPa WNW 18mph /  29km/h 28mph /  45.1km/h 88% 0.00in /  0mm 49 W/m2
11:39 49.5 °F /  9.7 °C 46 °F /  7.8 °C 30.01in /  1016.1hPa WNW 9.7mph /  15.6km/h 28mph /  45.1km/h 88% 0.00in /  0mm 46 W/m2
11:44 49.5 °F /  9.7 °C 46 °F /  7.8 °C 30.01in /  1016.1hPa WNW 11.2mph /  18km/h 22mph /  35.4km/h 88% 0.00in /  0mm 42 W/m2
11:49 49.5 °F /  9.7 °C 46 °F /  7.8 °C 30.01in /  1016.1hPa WNW 13.6mph /  21.9km/h 24mph /  38.6km/h 88% 0.00in /  0mm 35 W/m2
11:54 49.5 °F /  9.7 °C 46 °F /  7.8 °C 30.01in /  1016.1hPa WNW 9.6mph /  15.4km/h 22mph /  35.4km/h 88% 0.00in /  0mm 33 W/m2
11:59 49.5 °F /  9.7 °C 46 °F /  7.8 °C 30.01in /  1016.1hPa WNW 11.4mph /  18.3km/h 21mph /  33.8km/h 88% 0.00in /  0mm 30 W/m2
12:04 49.5 °F /  9.7 °C 46 °F /  7.8 °C 30.00in /  1015.8hPa WNW 10.1mph /  16.3km/h 21mph /  33.8km/h 88% 0.00in /  0mm 32 W/m2
12:09 49.5 °F /  9.7 °C 46 °F /  7.8 °C 30.00in /  1015.8hPa WNW 10.3mph /  16.6km/h 18mph /  29km/h 88% 0.00in /  0mm 35 W/m2
12:14 49.5 °F /  9.7 °C 46 °F /  7.8 °C 29.99in /  1015.5hPa WNW 9.4mph /  15.1km/h 19mph /  30.6km/h 87.8% 0.00in /  0mm 37 W/m2
12:19 49.6 °F /  9.8 °C 45.9 °F /  7.7 °C 29.99in /  1015.5hPa WNW 10.5mph /  16.9km/h 20mph /  32.2km/h 87.1% 0.00in /  0mm 40 W/m2
12:24 49.6 °F /  9.8 °C 45.9 °F /  7.7 °C 29.99in /  1015.5hPa WNW 11.1mph /  17.9km/h 21mph /  33.8km/h 87% 0.00in /  0mm 39 W/m2
12:29 49.6 °F /  9.8 °C 45.9 °F /  7.7 °C 29.99in /  1015.5hPa WNW 11.1mph /  17.9km/h 22mph /  35.4km/h 87% 0.00in /  0mm 40 W/m2
12:34 49.6 °F /  9.8 °C 45.9 °F /  7.7 °C 29.99in /  1015.5hPa WNW 11.8mph /  19km/h 23mph /  37km/h 87% 0.00in /  0mm 42 W/m2
12:39 49.6 °F /  9.8 °C 45.9 °F /  7.7 °C 29.99in /  1015.5hPa WNW 11.3mph /  18.2km/h 22mph /  35.4km/h 87% 0.00in /  0mm 42 W/m2
12:44 49.6 °F /  9.8 °C 46 °F /  7.8 °C 29.98in /  1015.1hPa WNW 14.4mph /  23.2km/h 28mph /  45.1km/h 87.3% 0.00in /  0mm 28 W/m2
12:49 49.5 °F /  9.7 °C 46 °F /  7.8 °C 29.98in /  1015.1hPa WNW 12.7mph /  20.4km/h 24mph /  38.6km/h 88% 0.00in /  0mm 28 W/m2
12:54 49.5 °F /  9.7 °C 46 °F /  7.8 °C 29.98in /  1015.1hPa WNW 9.7mph /  15.6km/h 21mph /  33.8km/h 88% 0.00in /  0mm 26 W/m2
12:59 49.4 °F /  9.7 °C 46 °F /  7.8 °C 29.98in /  1015.1hPa WNW 13.6mph /  21.9km/h 23mph /  37km/h 88% 0.00in /  0mm 37 W/m2
13:04 49.2 °F /  9.6 °C 46 °F /  7.8 °C 29.97in /  1014.8hPa WNW 11.2mph /  18km/h 22mph /  35.4km/h 88.5% 0.00in /  0mm 44 W/m2
13:09 49.1 °F /  9.5 °C 46 °F /  7.8 °C 29.97in /  1014.8hPa WNW 12.5mph /  20.1km/h 22mph /  35.4km/h 89% 0.00in /  0mm 56 W/m2
13:14 49.1 °F /  9.5 °C 46 °F /  7.8 °C 29.97in /  1014.8hPa WNW 14.5mph /  23.3km/h 28mph /  45.1km/h 89% 0.00in /  0mm 67 W/m2
13:19 49.1 °F /  9.5 °C 46.1 °F /  7.8 °C 29.97in /  1014.8hPa WNW 13.1mph /  21.1km/h 23mph /  37km/h 89.3% 0.00in /  0mm 56 W/m2
13:24 49.1 °F /  9.5 °C 46.2 °F /  7.9 °C 29.97in /  1014.8hPa WNW 9.5mph /  15.3km/h 20mph /  32.2km/h 89.8% 0.00in /  0mm 67 W/m2
13:29 49.1 °F /  9.5 °C 46.2 °F /  7.9 °C 29.97in /  1014.8hPa WNW 12.3mph /  19.8km/h 23mph /  37km/h 90% 0.00in /  0mm 56 W/m2
13:34 49.2 °F /  9.6 °C 46.3 °F /  7.9 °C 29.97in /  1014.8hPa WNW 9.9mph /  15.9km/h 22mph /  35.4km/h 90% 0.00in /  0mm 54 W/m2
13:39 49.3 °F /  9.6 °C 46.4 °F /  8 °C 29.97in /  1014.8hPa WNW 12mph /  19.3km/h 20mph /  32.2km/h 90% 0.00in /  0mm 39 W/m2
13:44 49.4 °F /  9.7 °C 46.5 °F /  8.1 °C 29.97in /  1014.8hPa WNW 10.8mph /  17.4km/h 20mph /  32.2km/h 90% 0.00in /  0mm 30 W/m2
13:49 49.5 °F /  9.7 °C 46.6 °F /  8.1 °C 29.97in /  1014.8hPa WNW 9.9mph /  15.9km/h 17mph /  27.4km/h 90% 0.00in /  0mm 32 W/m2
13:54 49.5 °F /  9.7 °C 46.6 °F /  8.1 °C 29.96in /  1014.4hPa WNW 14.3mph /  23km/h 24mph /  38.6km/h 90% 0.00in /  0mm 28 W/m2
13:59 49.5 °F /  9.7 °C 46.6 °F /  8.1 °C 29.96in /  1014.4hPa WNW 10.7mph /  17.2km/h 20mph /  32.2km/h 90% 0.00in /  0mm 26 W/m2
14:04 49.3 °F /  9.6 °C 46.4 °F /  8 °C 29.96in /  1014.4hPa WNW 9.8mph /  15.8km/h 22mph /  35.4km/h 90% 0.00in /  0mm 26 W/m2
14:09 49.2 °F /  9.6 °C 46.3 °F /  7.9 °C 29.96in /  1014.4hPa WNW 12.1mph /  19.5km/h 26mph /  41.8km/h 90% 0.00in /  0mm 21 W/m2
14:14 49.1 °F /  9.5 °C 46.2 °F /  7.9 °C 29.95in /  1014.1hPa WNW 15mph /  24.1km/h 26mph /  41.8km/h 90% 0.00in /  0mm 21 W/m2
14:19 49.1 °F /  9.5 °C 46.3 °F /  7.9 °C 29.95in /  1014.1hPa WNW 12.8mph /  20.6km/h 24mph /  38.6km/h 90.3% 0.00in /  0mm 23 W/m2
14:24 49.1 °F /  9.5 °C 46.6 °F /  8.1 °C 29.95in /  1014.1hPa WNW 13mph /  20.9km/h 23mph /  37km/h 91% 0.00in /  0mm 30 W/m2
14:29 48.9 °F /  9.4 °C 46.4 °F /  8 °C 29.95in /  1014.1hPa WNW 13.3mph /  21.4km/h 24mph /  38.6km/h 91% 0.00in /  0mm 25 W/m2
14:34 48.9 °F /  9.4 °C 46.4 °F /  8 °C 29.95in /  1014.1hPa WNW 11.6mph /  18.7km/h 24mph /  38.6km/h 91% 0.00in /  0mm 21 W/m2
14:39 48.9 °F /  9.4 °C 46.4 °F /  8 °C 29.95in /  1014.1hPa WNW 11.1mph /  17.9km/h 19mph /  30.6km/h 91% 0.00in /  0mm 23 W/m2
14:44 48.9 °F /  9.4 °C 46.4 °F /  8 °C 29.95in /  1014.1hPa WNW 11.9mph /  19.2km/h 20mph /  32.2km/h 91% 0.00in /  0mm 23 W/m2
14:49 48.9 °F /  9.4 °C 46.4 °F /  8 °C 29.95in /  1014.1hPa WNW 12.5mph /  20.1km/h 20mph /  32.2km/h 91% 0.00in /  0mm 23 W/m2
14:54 48.9 °F /  9.4 °C 46.4 °F /  8 °C 29.94in /  1013.8hPa WNW 11.7mph /  18.8km/h 21mph /  33.8km/h 91% 0.00in /  0mm 23 W/m2
14:59 48.9 °F /  9.4 °C 46.4 °F /  8 °C 29.94in /  1013.8hPa WNW 12.2mph /  19.6km/h 22mph /  35.4km/h 91% 0.00in /  0mm 23 W/m2
15:04 48.9 °F /  9.4 °C 46.4 °F /  8 °C 29.94in /  1013.8hPa WNW 10.1mph /  16.3km/h 20mph /  32.2km/h 91% 0.00in /  0mm 19 W/m2
15:09 48.9 °F /  9.4 °C 46.4 °F /  8 °C 29.94in /  1013.8hPa WNW 9mph /  14.5km/h 19mph /  30.6km/h 91% 0.00in /  0mm 16 W/m2
15:14 48.9 °F /  9.4 °C 46.4 °F /  8 °C 29.94in /  1013.8hPa WNW 10.5mph /  16.9km/h 20mph /  32.2km/h 91% 0.00in /  0mm 14 W/m2
15:19 48.9 °F /  9.4 °C 46.4 °F /  8 °C 29.93in /  1013.4hPa WNW 9mph /  14.5km/h 17mph /  27.4km/h 91% 0.00in /  0mm 11 W/m2
15:24 48.9 °F /  9.4 °C 46.4 °F /  8 °C 29.93in /  1013.4hPa WNW 10.3mph /  16.6km/h 18mph /  29km/h 91% 0.00in /  0mm 9 W/m2
15:29 48.9 °F /  9.4 °C 46.4 °F /  8 °C 29.93in /  1013.4hPa WNW 9mph /  14.5km/h 19mph /  30.6km/h 91% 0.00in /  0mm 7 W/m2
15:34 49 °F /  9.4 °C 46.5 °F /  8.1 °C 29.93in /  1013.4hPa WNW 10.7mph /  17.2km/h 21mph /  33.8km/h 91% 0.00in /  0mm 9 W/m2
15:39 49.1 °F /  9.5 °C 46.6 °F /  8.1 °C 29.93in /  1013.4hPa WNW 10.2mph /  16.4km/h 16mph /  25.7km/h 91% 0.00in /  0mm 9 W/m2
15:44 49.1 °F /  9.5 °C 46.6 °F /  8.1 °C 29.93in /  1013.4hPa WNW 9.7mph /  15.6km/h 16mph /  25.7km/h 91% 0.00in /  0mm 7 W/m2
15:49 49.1 °F /  9.5 °C 46.6 °F /  8.1 °C 29.93in /  1013.4hPa WNW 9.6mph /  15.4km/h 18mph /  29km/h 91% 0.00in /  0mm 5 W/m2
15:54 49.1 °F /  9.5 °C 46.6 °F /  8.1 °C 29.93in /  1013.4hPa WNW 8.9mph /  14.3km/h 17mph /  27.4km/h 91% 0.00in /  0mm 5 W/m2
15:59 49.1 °F /  9.5 °C 46.6 °F /  8.1 °C 29.93in /  1013.4hPa NW 9.9mph /  15.9km/h 18mph /  29km/h 91% 0.00in /  0mm 0 W/m2
16:04 49.3 °F /  9.6 °C 46.8 °F /  8.2 °C 29.93in /  1013.4hPa WNW 9.9mph /  15.9km/h 16mph /  25.7km/h 91% 0.00in /  0mm 5 W/m2
16:09 49.4 °F /  9.7 °C 46.9 °F /  8.3 °C 29.94in /  1013.8hPa WNW 9.3mph /  15km/h 18mph /  29km/h 91% 0.00in /  0mm 5 W/m2
16:14 49.5 °F /  9.7 °C 46.7 °F /  8.2 °C 29.94in /  1013.8hPa WNW 8.4mph /  13.5km/h 16mph /  25.7km/h 90.2% 0.00in /  0mm 5 W/m2
16:19 49.5 °F /  9.7 °C 46.8 °F /  8.2 °C 29.93in /  1013.4hPa WNW 10mph /  16.1km/h 18mph /  29km/h 90.6% 0.00in /  0mm 5 W/m2
16:24 49.5 °F /  9.7 °C 46.7 °F /  8.2 °C 29.93in /  1013.4hPa WNW 8.8mph /  14.2km/h 18mph /  29km/h 90.3% 0.00in /  0mm 0 W/m2
16:29 49.5 °F /  9.7 °C 46.6 °F /  8.1 °C 29.93in /  1013.4hPa WNW 12mph /  19.3km/h 22mph /  35.4km/h 90% 0.00in /  0mm 0 W/m2
16:34 49.5 °F /  9.7 °C 46.6 °F /  8.1 °C 29.93in /  1013.4hPa WNW 9.3mph /  15km/h 22mph /  35.4km/h 90% 0.00in /  0mm 0 W/m2
16:39 49.4 °F /  9.7 °C 46.5 °F /  8.1 °C 29.93in /  1013.4hPa WNW 8.8mph /  14.2km/h 18mph /  29km/h 90% 0.00in /  0mm 0 W/m2
16:44 49.2 °F /  9.6 °C 46.3 °F /  7.9 °C 29.93in /  1013.4hPa WNW 8.3mph /  13.4km/h 13mph /  20.9km/h 90% 0.00in /  0mm 0 W/m2
16:49 49.2 °F /  9.6 °C 46.3 °F /  7.9 °C 29.93in /  1013.4hPa WNW 10mph /  16.1km/h 18mph /  29km/h 90% 0.00in /  0mm 0 W/m2
16:54 49.1 °F /  9.5 °C 46.2 °F /  7.9 °C 29.93in /  1013.4hPa WNW 7.3mph /  11.7km/h 14mph /  22.5km/h 90% 0.00in /  0mm 0 W/m2
16:59 49.1 °F /  9.5 °C 46.2 °F /  7.9 °C 29.93in /  1013.4hPa WNW 6.6mph /  10.6km/h 11mph /  17.7km/h 90% 0.00in /  0mm 0 W/m2
17:04 49.1 °F /  9.5 °C 46.2 °F /  7.9 °C 29.93in /  1013.4hPa WNW 7.1mph /  11.4km/h 13mph /  20.9km/h 90% 0.00in /  0mm 0 W/m2
17:09 48.9 °F /  9.4 °C 46 °F /  7.8 °C 29.93in /  1013.4hPa WNW 5.6mph /  9km/h 10mph /  16.1km/h 90% 0.00in /  0mm 0 W/m2
17:14 48.9 °F /  9.4 °C 46 °F /  7.8 °C 29.92in /  1013.1hPa WNW 8.3mph /  13.4km/h 12mph /  19.3km/h 90% 0.00in /  0mm 0 W/m2
17:19 48.9 °F /  9.4 °C 46 °F /  7.8 °C 29.93in /  1013.4hPa WNW 6.3mph /  10.1km/h 13mph /  20.9km/h 90% 0.00in /  0mm 0 W/m2
17:24 49 °F /  9.4 °C 46.1 °F /  7.8 °C 29.93in /  1013.4hPa WNW 7.4mph /  11.9km/h 13mph /  20.9km/h 90% 0.00in /  0mm 0 W/m2
17:29 49.1 °F /  9.5 °C 46.2 °F /  7.9 °C 29.93in /  1013.4hPa WNW 5.8mph /  9.3km/h 11mph /  17.7km/h 89.8% 0.00in /  0mm 0 W/m2
17:34 49.1 °F /  9.5 °C 46 °F /  7.8 °C 29.93in /  1013.4hPa WNW 5.9mph /  9.5km/h 11mph /  17.7km/h 89% 0.00in /  0mm 0 W/m2
17:39 49.1 °F /  9.5 °C 46 °F /  7.8 °C 29.93in /  1013.4hPa WNW 5.1mph /  8.2km/h 11mph /  17.7km/h 89% 0.00in /  0mm 0 W/m2
17:44 49.2 °F /  9.6 °C 46.1 °F /  7.8 °C 29.93in /  1013.4hPa WNW 3.6mph /  5.8km/h 11mph /  17.7km/h 89% 0.00in /  0mm 0 W/m2
17:49 49.4 °F /  9.7 °C 45.9 °F /  7.7 °C 29.93in /  1013.4hPa NW 2.8mph /  4.5km/h 11mph /  17.7km/h 88% 0.00in /  0mm 0 W/m2
17:54 49.5 °F /  9.7 °C 46 °F /  7.8 °C 29.93in /  1013.4hPa WNW 3.2mph /  5.1km/h 8mph /  12.9km/h 88% 0.00in /  0mm 0 W/m2
17:59 49.6 °F /  9.8 °C 46 °F /  7.8 °C 29.93in /  1013.4hPa NW 3mph /  4.8km/h 7mph /  11.3km/h 87.5% 0.00in /  0mm 0 W/m2
18:04 49.8 °F /  9.9 °C 46 °F /  7.8 °C 29.93in /  1013.4hPa NW 8mph /  12.9km/h 12mph /  19.3km/h 87% 0.00in /  0mm 0 W/m2
18:09 50 °F /  10 °C 46.1 °F /  7.8 °C 29.93in /  1013.4hPa NW 7.2mph /  11.6km/h 12mph /  19.3km/h 86.5% 0.00in /  0mm 0 W/m2
18:14 50 °F /  10 °C 46 °F /  7.8 °C 29.93in /  1013.4hPa NW 5.5mph /  8.9km/h 11mph /  17.7km/h 86% 0.00in /  0mm 0 W/m2
18:19 50.1 °F /  10.1 °C 46.1 °F /  7.8 °C 29.93in /  1013.4hPa NW 5.7mph /  9.2km/h 11mph /  17.7km/h 86% 0.00in /  0mm 0 W/m2
18:24 50.2 °F /  10.1 °C 46.1 °F /  7.8 °C 29.93in /  1013.4hPa NW 4.1mph /  6.6km/h 11mph /  17.7km/h 85.5% 0.00in /  0mm 0 W/m2
18:29 50.3 °F /  10.2 °C 45.9 °F /  7.7 °C 29.93in /  1013.4hPa WNW 2.9mph /  4.7km/h 7mph /  11.3km/h 85% 0.00in /  0mm 0 W/m2
18:34 50.3 °F /  10.2 °C 46 °F /  7.8 °C 29.93in /  1013.4hPa WNW 3.9mph /  6.3km/h 9mph /  14.5km/h 85% 0.00in /  0mm 0 W/m2
18:39 50.4 °F /  10.2 °C 46 °F /  7.8 °C 29.93in /  1013.4hPa WNW 2.4mph /  3.9km/h 5mph /  8km/h 85% 0.00in /  0mm 0 W/m2
18:44 50.4 °F /  10.2 °C 45.7 °F /  7.6 °C 29.94in /  1013.8hPa NNW 1.5mph /  2.4km/h 6mph /  9.7km/h 84.1% 0.00in /  0mm 0 W/m2
18:49 50.4 °F /  10.2 °C 45.8 °F /  7.7 °C 29.94in /  1013.8hPa NW 3.1mph /  5km/h 7mph /  11.3km/h 84% 0.00in /  0mm 0 W/m2
18:54 50.5 °F /  10.3 °C 45.6 °F /  7.6 °C 29.94in /  1013.8hPa NW 3.9mph /  6.3km/h 10mph /  16.1km/h 83.2% 0.00in /  0mm 0 W/m2
18:59 50.7 °F /  10.4 °C 45.7 °F /  7.6 °C 29.94in /  1013.8hPa NW 3.7mph /  6km/h 10mph /  16.1km/h 82.9% 0.00in /  0mm 0 W/m2
19:04 50.9 °F /  10.5 °C 45.7 °F /  7.6 °C 29.94in /  1013.8hPa WNW 3.5mph /  5.6km/h 8mph /  12.9km/h 82% 0.00in /  0mm 0 W/m2
19:09 50.9 °F /  10.5 °C 45.7 °F /  7.6 °C 29.94in /  1013.8hPa WNW 3.5mph /  5.6km/h 7mph /  11.3km/h 82% 0.00in /  0mm 0 W/m2
19:14 50.7 °F /  10.4 °C 45.5 °F /  7.5 °C 29.94in /  1013.8hPa West 4.4mph /  7.1km/h 7mph /  11.3km/h 82% 0.00in /  0mm 0 W/m2
19:19 50.5 °F /  10.3 °C 45.3 °F /  7.4 °C 29.95in /  1014.1hPa WNW 5.7mph /  9.2km/h 9mph /  14.5km/h 82% 0.00in /  0mm 0 W/m2
19:24 50.4 °F /  10.2 °C 45.1 °F /  7.3 °C 29.95in /  1014.1hPa West 5.3mph /  8.5km/h 11mph /  17.7km/h 82% 0.00in /  0mm 0 W/m2
19:29 50.2 °F /  10.1 °C 45.1 °F /  7.3 °C 29.95in /  1014.1hPa WNW 5.4mph /  8.7km/h 11mph /  17.7km/h 83% 0.00in /  0mm 0 W/m2
19:34 50.2 °F /  10.1 °C 45.1 °F /  7.3 °C 29.95in /  1014.1hPa WNW 7.2mph /  11.6km/h 14mph /  22.5km/h 83% 0.00in /  0mm 0 W/m2
19:39 50.5 °F /  10.3 °C 45.3 °F /  7.4 °C 29.95in /  1014.1hPa WNW 8mph /  12.9km/h 16mph /  25.7km/h 82.2% 0.00in /  0mm 0 W/m2
19:44 50.6 °F /  10.3 °C 45.3 °F /  7.4 °C 29.96in /  1014.4hPa WNW 7.8mph /  12.6km/h 14mph /  22.5km/h 81.8% 0.00in /  0mm 0 W/m2
19:49 50.7 °F /  10.4 °C 45.1 °F /  7.3 °C 29.96in /  1014.4hPa NW 6.4mph /  10.3km/h 11mph /  17.7km/h 81% 0.00in /  0mm 0 W/m2
19:54 51 °F /  10.6 °C 44.6 °F /  7 °C 29.96in /  1014.4hPa WNW 13mph /  20.9km/h 23mph /  37km/h 78.7% 0.00in /  0mm 0 W/m2
19:59 51.6 °F /  10.9 °C 43.4 °F /  6.3 °C 29.96in /  1014.4hPa NW 15.2mph /  24.5km/h 30mph /  48.3km/h 73.6% 0.00in /  0mm 0 W/m2
20:04 51.7 °F /  10.9 °C 42.7 °F /  5.9 °C 29.96in /  1014.4hPa NW 12.4mph /  20km/h 21mph /  33.8km/h 71.5% 0.00in /  0mm 0 W/m2
20:09 51.5 °F /  10.8 °C 42.4 °F /  5.8 °C 29.96in /  1014.4hPa NW 11.5mph /  18.5km/h 22mph /  35.4km/h 71% 0.00in /  0mm 0 W/m2
20:14 51.4 °F /  10.8 °C 42 °F /  5.6 °C 29.96in /  1014.4hPa NW 13.4mph /  21.6km/h 25mph /  40.2km/h 70.2% 0.00in /  0mm 0 W/m2
20:19 51.3 °F /  10.7 °C 42.2 °F /  5.7 °C 29.96in /  1014.4hPa NW 9.7mph /  15.6km/h 21mph /  33.8km/h 70.9% 0.00in /  0mm 0 W/m2
20:24 50.9 °F /  10.5 °C 41.9 °F /  5.5 °C 29.96in /  1014.4hPa NW 10.1mph /  16.3km/h 18mph /  29km/h 71% 0.00in /  0mm 0 W/m2
20:29 50.7 °F /  10.4 °C 41.7 °F /  5.4 °C 29.97in /  1014.8hPa NW 10.1mph /  16.3km/h 19mph /  30.6km/h 71% 0.00in /  0mm 0 W/m2
20:34 50.7 °F /  10.4 °C 41.7 °F /  5.4 °C 29.97in /  1014.8hPa NW 13.8mph /  22.2km/h 22mph /  35.4km/h 71% 0.00in /  0mm 0 W/m2
20:39 50.7 °F /  10.4 °C 41.4 °F /  5.2 °C 29.97in /  1014.8hPa NW 11.1mph /  17.9km/h 21mph /  33.8km/h 70% 0.00in /  0mm 0 W/m2
20:44 50.5 °F /  10.3 °C 41.2 °F /  5.1 °C 29.97in /  1014.8hPa NW 11.9mph /  19.2km/h 22mph /  35.4km/h 70% 0.00in /  0mm 0 W/m2
20:49 50.5 °F /  10.3 °C 41.2 °F /  5.1 °C 29.98in /  1015.1hPa NW 12.8mph /  20.6km/h 21mph /  33.8km/h 70% 0.00in /  0mm 0 W/m2
20:54 50.5 °F /  10.3 °C 41.2 °F /  5.1 °C 29.98in /  1015.1hPa NW 10.6mph /  17.1km/h 17mph /  27.4km/h 70.2% 0.00in /  0mm 0 W/m2
20:59 50.4 °F /  10.2 °C 41.4 °F /  5.2 °C 29.98in /  1015.1hPa NW 14.8mph /  23.8km/h 22mph /  35.4km/h 71% 0.00in /  0mm 0 W/m2
21:04 50.3 °F /  10.2 °C 41.3 °F /  5.2 °C 29.98in /  1015.1hPa NW 14mph /  22.5km/h 24mph /  38.6km/h 71% 0.00in /  0mm 0 W/m2
21:09 50.1 °F /  10.1 °C 41.1 °F /  5.1 °C 29.98in /  1015.1hPa NW 11.5mph /  18.5km/h 19mph /  30.6km/h 71% 0.00in /  0mm 0 W/m2
21:14 50 °F /  10 °C 41.3 °F /  5.2 °C 29.98in /  1015.1hPa NNW 11.7mph /  18.8km/h 19mph /  30.6km/h 71.7% 0.00in /  0mm 0 W/m2
21:19 49.9 °F /  9.9 °C 41.3 °F /  5.2 °C 29.98in /  1015.1hPa NW 7.4mph /  11.9km/h 18mph /  29km/h 72% 0.00in /  0mm 0 W/m2
21:24 49.8 °F /  9.9 °C 41.2 °F /  5.1 °C 29.99in /  1015.5hPa NW 10mph /  16.1km/h 16mph /  25.7km/h 72% 0.00in /  0mm 0 W/m2
21:29 49.6 °F /  9.8 °C 41 °F /  5 °C 29.99in /  1015.5hPa NW 12.2mph /  19.6km/h 18mph /  29km/h 72% 0.00in /  0mm 0 W/m2
21:34 49.5 °F /  9.7 °C 40.9 °F /  4.9 °C 30.00in /  1015.8hPa NW 8.4mph /  13.5km/h 18mph /  29km/h 72% 0.00in /  0mm 0 W/m2
21:39 49.4 °F /  9.7 °C 40.8 °F /  4.9 °C 30.00in /  1015.8hPa NW 7.1mph /  11.4km/h 15mph /  24.1km/h 72.2% 0.00in /  0mm 0 W/m2
21:44 49.1 °F /  9.5 °C 40.8 °F /  4.9 °C 30.01in /  1016.1hPa NW 7.4mph /  11.9km/h 15mph /  24.1km/h 72.8% 0.00in /  0mm 0 W/m2
21:49 49.1 °F /  9.5 °C 40.8 °F /  4.9 °C 30.01in /  1016.1hPa NW 7.2mph /  11.6km/h 15mph /  24.1km/h 73% 0.00in /  0mm 0 W/m2
21:54 49.1 °F /  9.5 °C 40.7 °F /  4.8 °C 30.00in /  1015.8hPa NW 8.8mph /  14.2km/h 16mph /  25.7km/h 72.6% 0.00in /  0mm 0 W/m2
21:59 49.1 °F /  9.5 °C 40.5 °F /  4.7 °C 30.01in /  1016.1hPa NW 8.4mph /  13.5km/h 17mph /  27.4km/h 72% 0.00in /  0mm 0 W/m2
22:04 49.1 °F /  9.5 °C 40.5 °F /  4.7 °C 30.01in /  1016.1hPa NW 6.1mph /  9.8km/h 14mph /  22.5km/h 72% 0.00in /  0mm 0 W/m2
22:09 49.1 °F /  9.5 °C 40.5 °F /  4.7 °C 30.01in /  1016.1hPa NW 6.4mph /  10.3km/h 14mph /  22.5km/h 72% 0.00in /  0mm 0 W/m2
22:14 49.1 °F /  9.5 °C 40.5 °F /  4.7 °C 30.01in /  1016.1hPa NW 9.5mph /  15.3km/h 15mph /  24.1km/h 72.2% 0.00in /  0mm 0 W/m2
22:19 49.1 °F /  9.5 °C 40.8 °F /  4.9 °C 30.01in /  1016.1hPa NW 6.6mph /  10.6km/h 15mph /  24.1km/h 73% 0.00in /  0mm 0 W/m2
22:24 48.9 °F /  9.4 °C 40.6 °F /  4.8 °C 30.01in /  1016.1hPa NW 8mph /  12.9km/h 17mph /  27.4km/h 73% 0.00in /  0mm 0 W/m2
22:29 48.7 °F /  9.3 °C 40.5 °F /  4.7 °C 30.01in /  1016.1hPa WNW 8mph /  12.9km/h 14mph /  22.5km/h 73% 0.00in /  0mm 0 W/m2
22:34 48.6 °F /  9.2 °C 40.4 °F /  4.7 °C 30.01in /  1016.1hPa WNW 7.7mph /  12.4km/h 16mph /  25.7km/h 73% 0.00in /  0mm 0 W/m2
22:39 48.6 °F /  9.2 °C 40.3 °F /  4.6 °C 30.02in /  1016.5hPa WNW 8.6mph /  13.8km/h 18mph /  29km/h 73% 0.00in /  0mm 0 W/m2
22:44 48.4 °F /  9.1 °C 40.3 °F /  4.6 °C 30.02in /  1016.5hPa WNW 4.6mph /  7.4km/h 11mph /  17.7km/h 73.7% 0.00in /  0mm 0 W/m2
22:49 48.2 °F /  9 °C 40.4 °F /  4.7 °C 30.02in /  1016.5hPa WNW 6.4mph /  10.3km/h 12mph /  19.3km/h 74.4% 0.00in /  0mm 0 W/m2
22:54 48.1 °F /  8.9 °C 40.6 °F /  4.8 °C 30.02in /  1016.5hPa WNW 5.5mph /  8.9km/h 12mph /  19.3km/h 75% 0.00in /  0mm 0 W/m2
22:59 48 °F /  8.9 °C 40.5 °F /  4.7 °C 30.03in /  1016.8hPa NW 7.6mph /  12.2km/h 15mph /  24.1km/h 75% 0.00in /  0mm 0 W/m2
23:04 48 °F /  8.9 °C 40.4 °F /  4.7 °C 30.03in /  1016.8hPa WNW 5.9mph /  9.5km/h 13mph /  20.9km/h 74.8% 0.00in /  0mm 0 W/m2
23:09 47.8 °F /  8.8 °C 40 °F /  4.4 °C 30.03in /  1016.8hPa WNW 6.7mph /  10.8km/h 16mph /  25.7km/h 74.1% 0.00in /  0mm 0 W/m2
23:14 47.8 °F /  8.8 °C 39.8 °F /  4.3 °C 30.03in /  1016.8hPa WNW 6.7mph /  10.8km/h 12mph /  19.3km/h 74% 0.00in /  0mm 0 W/m2
23:19 47.7 °F /  8.7 °C 39.7 °F /  4.3 °C 30.03in /  1016.8hPa WNW 5.5mph /  8.9km/h 10mph /  16.1km/h 74% 0.00in /  0mm 0 W/m2
23:24 47.4 °F /  8.6 °C 39.5 °F /  4.2 °C 30.03in /  1016.8hPa WNW 5mph /  8km/h 11mph /  17.7km/h 74% 0.00in /  0mm 0 W/m2
23:29 47.2 °F /  8.4 °C 39.3 °F /  4.1 °C 30.03in /  1016.8hPa WNW 2.9mph /  4.7km/h 8mph /  12.9km/h 74% 0.00in /  0mm 0 W/m2
23:34 47.1 °F /  8.4 °C 39.2 °F /  4 °C 30.03in /  1016.8hPa WNW 6.4mph /  10.3km/h 14mph /  22.5km/h 74% 0.00in /  0mm 0 W/m2
23:39 46.9 °F /  8.3 °C 39 °F /  3.9 °C 30.04in /  1017.2hPa West 6.5mph /  10.5km/h 14mph /  22.5km/h 74% 0.00in /  0mm 0 W/m2
23:44 46.8 °F /  8.2 °C 38.8 °F /  3.8 °C 30.04in /  1017.2hPa West 5.7mph /  9.2km/h 10mph /  16.1km/h 74% 0.00in /  0mm 0 W/m2
23:49 46.5 °F /  8.1 °C 38.6 °F /  3.7 °C 30.04in /  1017.2hPa WNW 7.2mph /  11.6km/h 12mph /  19.3km/h 74% 0.00in /  0mm 0 W/m2
23:54 46.6 °F /  8.1 °C 38.7 °F /  3.7 °C 30.04in /  1017.2hPa WNW 8.1mph /  13km/h 13mph /  20.9km/h 74% 0.00in /  0mm 0 W/m2
23:59 46.8 °F /  8.2 °C 38.6 °F /  3.7 °C 30.04in /  1017.2hPa WNW 4.8mph /  7.7km/h 13mph /  20.9km/h 73.1% 0.00in /  0mm 0 W/m2
Bath Spa Weather
Compliments of Weather Underground - 2 mb